sensor_id;sensor_type;location;lat;lon;timestamp;P1;durP1;ratioP1;P2;durP2;ratioP2
20383;SDS011;46458;50.966;7.002;2023-04-06T00:00:09;11.40;;;7.60;;
20383;SDS011;46458;50.966;7.002;2023-04-06T00:02:39;11.40;;;7.50;;
20383;SDS011;46458;50.966;7.002;2023-04-06T00:05:09;10.90;;;7.83;;
20383;SDS011;46458;50.966;7.002;2023-04-06T00:07:37;11.80;;;7.53;;
20383;SDS011;46458;50.966;7.002;2023-04-06T00:10:07;10.37;;;6.90;;
20383;SDS011;46458;50.966;7.002;2023-04-06T00:12:37;12.00;;;7.53;;
20383;SDS011;46458;50.966;7.002;2023-04-06T00:15:09;10.73;;;7.30;;
20383;SDS011;46458;50.966;7.002;2023-04-06T00:17:40;10.47;;;7.83;;
20383;SDS011;46458;50.966;7.002;2023-04-06T00:20:10;10.97;;;7.37;;
20383;SDS011;46458;50.966;7.002;2023-04-06T00:22:39;10.50;;;8.17;;
20383;SDS011;46458;50.966;7.002;2023-04-06T00:25:08;12.30;;;8.30;;
20383;SDS011;46458;50.966;7.002;2023-04-06T00:27:44;13.13;;;8.07;;
20383;SDS011;46458;50.966;7.002;2023-04-06T00:30:15;12.40;;;8.43;;
20383;SDS011;46458;50.966;7.002;2023-04-06T00:32:44;10.13;;;7.90;;
20383;SDS011;46458;50.966;7.002;2023-04-06T00:35:13;13.33;;;7.90;;
20383;SDS011;46458;50.966;7.002;2023-04-06T00:37:42;12.37;;;8.17;;
20383;SDS011;46458;50.966;7.002;2023-04-06T00:40:14;12.80;;;7.73;;
20383;SDS011;46458;50.966;7.002;2023-04-06T00:42:44;11.70;;;8.40;;
20383;SDS011;46458;50.966;7.002;2023-04-06T00:45:17;13.67;;;8.17;;
20383;SDS011;46458;50.966;7.002;2023-04-06T00:47:46;10.63;;;7.70;;
20383;SDS011;46458;50.966;7.002;2023-04-06T00:50:15;12.00;;;7.60;;
20383;SDS011;46458;50.966;7.002;2023-04-06T00:52:44;12.07;;;8.00;;
20383;SDS011;46458;50.966;7.002;2023-04-06T00:55:14;11.43;;;8.40;;
20383;SDS011;46458;50.966;7.002;2023-04-06T00:57:43;11.47;;;7.53;;
20383;SDS011;46458;50.966;7.002;2023-04-06T01:00:13;11.63;;;8.10;;
20383;SDS011;46458;50.966;7.002;2023-04-06T01:02:50;10.63;;;8.00;;
20383;SDS011;46458;50.966;7.002;2023-04-06T01:05:21;13.13;;;7.77;;
20383;SDS011;46458;50.966;7.002;2023-04-06T01:07:57;9.27;;;7.33;;
20383;SDS011;46458;50.966;7.002;2023-04-06T01:10:28;10.03;;;7.57;;
20383;SDS011;46458;50.966;7.002;2023-04-06T01:13:08;10.27;;;7.33;;
20383;SDS011;46458;50.966;7.002;2023-04-06T01:15:49;10.40;;;7.10;;
20383;SDS011;46458;50.966;7.002;2023-04-06T01:18:29;10.57;;;6.93;;
20383;SDS011;46458;50.966;7.002;2023-04-06T01:21:11;10.27;;;7.03;;
20383;SDS011;46458;50.966;7.002;2023-04-06T01:23:52;10.47;;;7.83;;
20383;SDS011;46458;50.966;7.002;2023-04-06T01:26:28;9.93;;;6.70;;
20383;SDS011;46458;50.966;7.002;2023-04-06T01:29:03;12.30;;;7.20;;
20383;SDS011;46458;50.966;7.002;2023-04-06T01:31:32;9.20;;;6.63;;
20383;SDS011;46458;50.966;7.002;2023-04-06T01:34:01;9.93;;;7.30;;
20383;SDS011;46458;50.966;7.002;2023-04-06T01:36:31;11.27;;;7.20;;
20383;SDS011;46458;50.966;7.002;2023-04-06T01:39:18;10.07;;;7.43;;
20383;SDS011;46458;50.966;7.002;2023-04-06T01:41:48;12.30;;;8.10;;
20383;SDS011;46458;50.966;7.002;2023-04-06T01:44:19;8.60;;;6.87;;
20383;SDS011;46458;50.966;7.002;2023-04-06T01:46:55;9.73;;;6.73;;
20383;SDS011;46458;50.966;7.002;2023-04-06T01:49:28;9.20;;;7.03;;
20383;SDS011;46458;50.966;7.002;2023-04-06T01:51:57;9.47;;;6.67;;
20383;SDS011;46458;50.966;7.002;2023-04-06T01:54:28;10.93;;;6.63;;
20383;SDS011;46458;50.966;7.002;2023-04-06T01:57:22;10.00;;;7.00;;
20383;SDS011;46458;50.966;7.002;2023-04-06T02:00:04;8.10;;;6.43;;
20383;SDS011;46458;50.966;7.002;2023-04-06T02:02:44;11.73;;;7.07;;
20383;SDS011;46458;50.966;7.002;2023-04-06T02:05:22;10.80;;;6.53;;
20383;SDS011;46458;50.966;7.002;2023-04-06T02:08:03;8.60;;;6.33;;
20383;SDS011;46458;50.966;7.002;2023-04-06T02:10:37;11.20;;;7.03;;
20383;SDS011;46458;50.966;7.002;2023-04-06T02:13:16;6.83;;;5.93;;
20383;SDS011;46458;50.966;7.002;2023-04-06T02:15:48;9.43;;;6.60;;
20383;SDS011;46458;50.966;7.002;2023-04-06T02:18:20;10.60;;;7.03;;
20383;SDS011;46458;50.966;7.002;2023-04-06T02:20:49;8.63;;;6.47;;
20383;SDS011;46458;50.966;7.002;2023-04-06T02:23:18;8.40;;;6.60;;
20383;SDS011;46458;50.966;7.002;2023-04-06T02:25:50;8.87;;;6.23;;
20383;SDS011;46458;50.966;7.002;2023-04-06T02:28:19;9.07;;;6.53;;
20383;SDS011;46458;50.966;7.002;2023-04-06T02:30:48;10.80;;;6.80;;
20383;SDS011;46458;50.966;7.002;2023-04-06T02:33:18;8.87;;;6.90;;
20383;SDS011;46458;50.966;7.002;2023-04-06T02:35:47;10.53;;;6.60;;
20383;SDS011;46458;50.966;7.002;2023-04-06T02:38:16;9.17;;;6.37;;
20383;SDS011;46458;50.966;7.002;2023-04-06T02:40:45;10.00;;;6.03;;
20383;SDS011;46458;50.966;7.002;2023-04-06T02:43:23;9.97;;;6.43;;
20383;SDS011;46458;50.966;7.002;2023-04-06T02:46:02;8.37;;;6.00;;
20383;SDS011;46458;50.966;7.002;2023-04-06T02:48:35;8.50;;;6.43;;
20383;SDS011;46458;50.966;7.002;2023-04-06T02:51:05;10.33;;;6.73;;
20383;SDS011;46458;50.966;7.002;2023-04-06T02:53:35;10.13;;;6.33;;
20383;SDS011;46458;50.966;7.002;2023-04-06T02:56:05;9.23;;;6.47;;
20383;SDS011;46458;50.966;7.002;2023-04-06T02:58:50;12.47;;;6.47;;
20383;SDS011;46458;50.966;7.002;2023-04-06T03:01:26;12.80;;;7.57;;
20383;SDS011;46458;50.966;7.002;2023-04-06T03:03:59;14.07;;;7.23;;
20383;SDS011;46458;50.966;7.002;2023-04-06T03:06:28;9.60;;;6.47;;
20383;SDS011;46458;50.966;7.002;2023-04-06T03:09:06;10.57;;;6.63;;
20383;SDS011;46458;50.966;7.002;2023-04-06T03:11:35;7.50;;;6.23;;
20383;SDS011;46458;50.966;7.002;2023-04-06T03:14:11;9.57;;;6.70;;
20383;SDS011;46458;50.966;7.002;2023-04-06T03:16:42;13.23;;;7.50;;
20383;SDS011;46458;50.966;7.002;2023-04-06T03:19:16;10.33;;;6.53;;
20383;SDS011;46458;50.966;7.002;2023-04-06T03:21:45;10.63;;;7.33;;
20383;SDS011;46458;50.966;7.002;2023-04-06T03:24:16;9.90;;;6.57;;
20383;SDS011;46458;50.966;7.002;2023-04-06T03:26:45;10.40;;;7.40;;
20383;SDS011;46458;50.966;7.002;2023-04-06T03:29:17;8.90;;;7.00;;
20383;SDS011;46458;50.966;7.002;2023-04-06T03:31:46;9.93;;;6.93;;
20383;SDS011;46458;50.966;7.002;2023-04-06T03:34:34;11.93;;;7.03;;
20383;SDS011;46458;50.966;7.002;2023-04-06T03:37:03;11.43;;;7.43;;
20383;SDS011;46458;50.966;7.002;2023-04-06T03:39:32;11.23;;;7.00;;
20383;SDS011;46458;50.966;7.002;2023-04-06T03:42:03;9.80;;;6.57;;
20383;SDS011;46458;50.966;7.002;2023-04-06T03:44:37;11.90;;;6.70;;
20383;SDS011;46458;50.966;7.002;2023-04-06T03:47:06;11.93;;;6.90;;
20383;SDS011;46458;50.966;7.002;2023-04-06T03:49:35;9.27;;;6.37;;
20383;SDS011;46458;50.966;7.002;2023-04-06T03:52:06;9.77;;;6.80;;
20383;SDS011;46458;50.966;7.002;2023-04-06T03:54:35;9.70;;;6.87;;
20383;SDS011;46458;50.966;7.002;2023-04-06T03:57:04;10.20;;;6.67;;
20383;SDS011;46458;50.966;7.002;2023-04-06T03:59:33;13.10;;;6.73;;
20383;SDS011;46458;50.966;7.002;2023-04-06T04:02:05;9.60;;;6.53;;
20383;SDS011;46458;50.966;7.002;2023-04-06T04:04:34;11.97;;;7.10;;
20383;SDS011;46458;50.966;7.002;2023-04-06T04:07:03;11.07;;;6.27;;
20383;SDS011;46458;50.966;7.002;2023-04-06T04:09:32;10.53;;;6.77;;
20383;SDS011;46458;50.966;7.002;2023-04-06T04:12:01;8.90;;;5.93;;
20383;SDS011;46458;50.966;7.002;2023-04-06T04:14:31;10.60;;;6.07;;
20383;SDS011;46458;50.966;7.002;2023-04-06T04:17:03;9.87;;;6.50;;
20383;SDS011;46458;50.966;7.002;2023-04-06T04:19:32;12.17;;;6.30;;
20383;SDS011;46458;50.966;7.002;2023-04-06T04:22:01;8.93;;;6.33;;
20383;SDS011;46458;50.966;7.002;2023-04-06T04:24:33;10.73;;;6.80;;
20383;SDS011;46458;50.966;7.002;2023-04-06T04:27:04;11.37;;;7.00;;
20383;SDS011;46458;50.966;7.002;2023-04-06T04:29:34;10.63;;;7.03;;
20383;SDS011;46458;50.966;7.002;2023-04-06T04:32:09;8.93;;;6.20;;
20383;SDS011;46458;50.966;7.002;2023-04-06T04:34:38;11.97;;;6.87;;
20383;SDS011;46458;50.966;7.002;2023-04-06T04:37:15;11.17;;;6.87;;
20383;SDS011;46458;50.966;7.002;2023-04-06T04:39:54;10.90;;;6.80;;
20383;SDS011;46458;50.966;7.002;2023-04-06T04:42:23;10.30;;;6.20;;
20383;SDS011;46458;50.966;7.002;2023-04-06T04:44:55;9.23;;;6.70;;
20383;SDS011;46458;50.966;7.002;2023-04-06T04:47:39;11.13;;;6.40;;
20383;SDS011;46458;50.966;7.002;2023-04-06T04:50:11;10.57;;;6.97;;
20383;SDS011;46458;50.966;7.002;2023-04-06T04:52:44;9.70;;;6.63;;
20383;SDS011;46458;50.966;7.002;2023-04-06T04:55:22;10.47;;;6.43;;
20383;SDS011;46458;50.966;7.002;2023-04-06T04:57:57;11.07;;;6.07;;
20383;SDS011;46458;50.966;7.002;2023-04-06T05:00:41;9.03;;;6.37;;
20383;SDS011;46458;50.966;7.002;2023-04-06T05:03:18;7.73;;;6.00;;
20383;SDS011;46458;50.966;7.002;2023-04-06T05:06:00;8.20;;;6.53;;
20383;SDS011;46458;50.966;7.002;2023-04-06T05:08:33;8.00;;;5.90;;
20383;SDS011;46458;50.966;7.002;2023-04-06T05:11:01;13.50;;;6.53;;
20383;SDS011;46458;50.966;7.002;2023-04-06T05:13:37;8.00;;;6.10;;
20383;SDS011;46458;50.966;7.002;2023-04-06T05:16:15;10.57;;;6.17;;
20383;SDS011;46458;50.966;7.002;2023-04-06T05:18:47;11.63;;;6.50;;
20383;SDS011;46458;50.966;7.002;2023-04-06T05:21:19;12.73;;;6.93;;
20383;SDS011;46458;50.966;7.002;2023-04-06T05:24:04;9.73;;;7.23;;
20383;SDS011;46458;50.966;7.002;2023-04-06T05:26:34;9.77;;;6.23;;
20383;SDS011;46458;50.966;7.002;2023-04-06T05:29:15;9.67;;;6.77;;
20383;SDS011;46458;50.966;7.002;2023-04-06T05:31:45;11.97;;;6.03;;
20383;SDS011;46458;50.966;7.002;2023-04-06T05:34:21;9.43;;;6.43;;
20383;SDS011;46458;50.966;7.002;2023-04-06T05:36:50;11.43;;;6.37;;
20383;SDS011;46458;50.966;7.002;2023-04-06T05:39:23;8.13;;;6.20;;
20383;SDS011;46458;50.966;7.002;2023-04-06T05:41:53;8.70;;;5.97;;
20383;SDS011;46458;50.966;7.002;2023-04-06T05:44:36;9.17;;;6.10;;
20383;SDS011;46458;50.966;7.002;2023-04-06T05:47:10;9.20;;;6.03;;
20383;SDS011;46458;50.966;7.002;2023-04-06T05:49:44;8.83;;;6.27;;
20383;SDS011;46458;50.966;7.002;2023-04-06T05:52:24;9.93;;;6.93;;
20383;SDS011;46458;50.966;7.002;2023-04-06T05:54:53;12.77;;;6.40;;
20383;SDS011;46458;50.966;7.002;2023-04-06T05:57:23;12.73;;;6.80;;
20383;SDS011;46458;50.966;7.002;2023-04-06T05:59:53;10.93;;;7.27;;
20383;SDS011;46458;50.966;7.002;2023-04-06T06:02:27;9.90;;;5.97;;
20383;SDS011;46458;50.966;7.002;2023-04-06T06:05:01;9.17;;;6.63;;
20383;SDS011;46458;50.966;7.002;2023-04-06T06:07:30;9.73;;;6.57;;
20383;SDS011;46458;50.966;7.002;2023-04-06T06:10:01;9.83;;;6.07;;
20383;SDS011;46458;50.966;7.002;2023-04-06T06:12:33;11.77;;;6.43;;
20383;SDS011;46458;50.966;7.002;2023-04-06T06:15:03;8.30;;;6.17;;
20383;SDS011;46458;50.966;7.002;2023-04-06T06:17:39;7.60;;;5.87;;
20383;SDS011;46458;50.966;7.002;2023-04-06T06:20:11;8.53;;;5.97;;
20383;SDS011;46458;50.966;7.002;2023-04-06T06:22:42;10.53;;;6.80;;
20383;SDS011;46458;50.966;7.002;2023-04-06T06:25:16;9.13;;;6.60;;
20383;SDS011;46458;50.966;7.002;2023-04-06T06:27:46;8.67;;;5.53;;
20383;SDS011;46458;50.966;7.002;2023-04-06T06:30:17;10.33;;;6.40;;
20383;SDS011;46458;50.966;7.002;2023-04-06T06:32:46;7.97;;;5.50;;
20383;SDS011;46458;50.966;7.002;2023-04-06T06:35:21;9.53;;;6.47;;
20383;SDS011;46458;50.966;7.002;2023-04-06T06:37:50;8.43;;;6.03;;
20383;SDS011;46458;50.966;7.002;2023-04-06T06:40:25;9.13;;;6.40;;
20383;SDS011;46458;50.966;7.002;2023-04-06T06:42:54;8.47;;;6.13;;
20383;SDS011;46458;50.966;7.002;2023-04-06T06:45:32;10.07;;;6.83;;
20383;SDS011;46458;50.966;7.002;2023-04-06T06:48:02;8.90;;;6.30;;
20383;SDS011;46458;50.966;7.002;2023-04-06T06:50:33;9.77;;;6.67;;
20383;SDS011;46458;50.966;7.002;2023-04-06T06:53:04;7.40;;;5.67;;
20383;SDS011;46458;50.966;7.002;2023-04-06T06:55:33;8.47;;;6.53;;
20383;SDS011;46458;50.966;7.002;2023-04-06T06:58:02;8.77;;;6.40;;
20383;SDS011;46458;50.966;7.002;2023-04-06T07:00:32;7.80;;;5.97;;
20383;SDS011;46458;50.966;7.002;2023-04-06T07:03:03;8.73;;;5.97;;
20383;SDS011;46458;50.966;7.002;2023-04-06T07:05:35;11.57;;;6.90;;
20383;SDS011;46458;50.966;7.002;2023-04-06T07:08:05;10.33;;;6.40;;
20383;SDS011;46458;50.966;7.002;2023-04-06T07:10:34;10.20;;;6.67;;
20383;SDS011;46458;50.966;7.002;2023-04-06T07:13:03;10.13;;;7.07;;
20383;SDS011;46458;50.966;7.002;2023-04-06T07:15:32;10.57;;;6.43;;
20383;SDS011;46458;50.966;7.002;2023-04-06T07:18:01;8.40;;;6.43;;
20383;SDS011;46458;50.966;7.002;2023-04-06T07:20:30;10.00;;;6.90;;
20383;SDS011;46458;50.966;7.002;2023-04-06T07:23:01;13.63;;;7.07;;
20383;SDS011;46458;50.966;7.002;2023-04-06T07:25:30;10.10;;;7.10;;
20383;SDS011;46458;50.966;7.002;2023-04-06T07:28:09;10.43;;;6.73;;
20383;SDS011;46458;50.966;7.002;2023-04-06T07:30:38;9.83;;;7.13;;
20383;SDS011;46458;50.966;7.002;2023-04-06T07:33:09;9.23;;;6.67;;
20383;SDS011;46458;50.966;7.002;2023-04-06T07:35:40;8.63;;;6.47;;
20383;SDS011;46458;50.966;7.002;2023-04-06T07:38:13;10.57;;;6.93;;
20383;SDS011;46458;50.966;7.002;2023-04-06T07:40:42;8.67;;;6.23;;
20383;SDS011;46458;50.966;7.002;2023-04-06T07:43:12;9.73;;;7.07;;
20383;SDS011;46458;50.966;7.002;2023-04-06T07:45:41;10.57;;;6.80;;
20383;SDS011;46458;50.966;7.002;2023-04-06T07:48:11;10.20;;;7.23;;
20383;SDS011;46458;50.966;7.002;2023-04-06T07:50:40;10.10;;;7.03;;
20383;SDS011;46458;50.966;7.002;2023-04-06T07:53:09;10.23;;;7.07;;
20383;SDS011;46458;50.966;7.002;2023-04-06T07:55:42;9.63;;;6.90;;
20383;SDS011;46458;50.966;7.002;2023-04-06T07:58:11;14.00;;;7.43;;
20383;SDS011;46458;50.966;7.002;2023-04-06T08:00:40;9.30;;;6.67;;
20383;SDS011;46458;50.966;7.002;2023-04-06T08:03:09;10.37;;;7.27;;
20383;SDS011;46458;50.966;7.002;2023-04-06T08:05:38;11.53;;;7.30;;
20383;SDS011;46458;50.966;7.002;2023-04-06T08:08:09;9.60;;;6.80;;
20383;SDS011;46458;50.966;7.002;2023-04-06T08:10:40;9.03;;;7.07;;
20383;SDS011;46458;50.966;7.002;2023-04-06T08:13:09;10.70;;;7.10;;
20383;SDS011;46458;50.966;7.002;2023-04-06T08:15:38;12.53;;;7.57;;
20383;SDS011;46458;50.966;7.002;2023-04-06T08:18:07;11.43;;;7.00;;
20383;SDS011;46458;50.966;7.002;2023-04-06T08:20:37;13.20;;;7.53;;
20383;SDS011;46458;50.966;7.002;2023-04-06T08:23:06;10.10;;;7.17;;
20383;SDS011;46458;50.966;7.002;2023-04-06T08:25:36;10.77;;;7.20;;
20383;SDS011;46458;50.966;7.002;2023-04-06T08:28:08;10.70;;;7.47;;
20383;SDS011;46458;50.966;7.002;2023-04-06T08:30:39;11.53;;;7.70;;
20383;SDS011;46458;50.966;7.002;2023-04-06T08:33:10;12.87;;;8.17;;
20383;SDS011;46458;50.966;7.002;2023-04-06T08:35:39;11.73;;;7.43;;
20383;SDS011;46458;50.966;7.002;2023-04-06T08:38:07;10.43;;;7.40;;
20383;SDS011;46458;50.966;7.002;2023-04-06T08:40:39;10.13;;;7.13;;
20383;SDS011;46458;50.966;7.002;2023-04-06T08:43:12;10.33;;;7.17;;
20383;SDS011;46458;50.966;7.002;2023-04-06T08:45:42;11.97;;;6.97;;
20383;SDS011;46458;50.966;7.002;2023-04-06T08:48:11;12.30;;;8.00;;
20383;SDS011;46458;50.966;7.002;2023-04-06T08:50:42;12.37;;;7.93;;
20383;SDS011;46458;50.966;7.002;2023-04-06T08:53:11;13.40;;;8.20;;
20383;SDS011;46458;50.966;7.002;2023-04-06T08:55:41;11.67;;;7.83;;
20383;SDS011;46458;50.966;7.002;2023-04-06T08:58:17;13.07;;;8.50;;
20383;SDS011;46458;50.966;7.002;2023-04-06T09:00:46;11.67;;;8.20;;
20383;SDS011;46458;50.966;7.002;2023-04-06T09:03:16;12.87;;;8.10;;
20383;SDS011;46458;50.966;7.002;2023-04-06T09:05:46;13.83;;;8.80;;
20383;SDS011;46458;50.966;7.002;2023-04-06T09:08:18;13.70;;;8.53;;
20383;SDS011;46458;50.966;7.002;2023-04-06T09:10:48;14.57;;;8.60;;
20383;SDS011;46458;50.966;7.002;2023-04-06T09:13:20;11.67;;;7.83;;
20383;SDS011;46458;50.966;7.002;2023-04-06T09:15:57;14.03;;;9.57;;
20383;SDS011;46458;50.966;7.002;2023-04-06T09:18:33;15.10;;;8.40;;
20383;SDS011;46458;50.966;7.002;2023-04-06T09:21:03;11.87;;;8.20;;
20383;SDS011;46458;50.966;7.002;2023-04-06T09:23:36;13.27;;;9.63;;
20383;SDS011;46458;50.966;7.002;2023-04-06T09:26:07;12.97;;;9.57;;
20383;SDS011;46458;50.966;7.002;2023-04-06T09:28:46;12.43;;;8.70;;
20383;SDS011;46458;50.966;7.002;2023-04-06T09:31:17;14.20;;;8.87;;
20383;SDS011;46458;50.966;7.002;2023-04-06T09:33:51;14.23;;;9.03;;
20383;SDS011;46458;50.966;7.002;2023-04-06T09:36:29;13.63;;;9.20;;
20383;SDS011;46458;50.966;7.002;2023-04-06T09:38:59;13.17;;;9.47;;
20383;SDS011;46458;50.966;7.002;2023-04-06T09:41:32;14.80;;;8.93;;
20383;SDS011;46458;50.966;7.002;2023-04-06T09:44:07;13.30;;;9.23;;
20383;SDS011;46458;50.966;7.002;2023-04-06T09:46:38;14.67;;;9.10;;
20383;SDS011;46458;50.966;7.002;2023-04-06T09:49:08;11.77;;;8.50;;
20383;SDS011;46458;50.966;7.002;2023-04-06T09:51:42;17.23;;;10.40;;
20383;SDS011;46458;50.966;7.002;2023-04-06T09:54:16;14.57;;;9.03;;
20383;SDS011;46458;50.966;7.002;2023-04-06T09:56:50;15.93;;;10.47;;
20383;SDS011;46458;50.966;7.002;2023-04-06T09:59:32;14.83;;;9.27;;
20383;SDS011;46458;50.966;7.002;2023-04-06T10:02:08;13.67;;;9.30;;
20383;SDS011;46458;50.966;7.002;2023-04-06T10:04:46;15.93;;;9.87;;
20383;SDS011;46458;50.966;7.002;2023-04-06T10:07:21;12.40;;;8.43;;
20383;SDS011;46458;50.966;7.002;2023-04-06T10:09:53;15.20;;;8.63;;
20383;SDS011;46458;50.966;7.002;2023-04-06T10:12:27;15.20;;;9.60;;
20383;SDS011;46458;50.966;7.002;2023-04-06T10:15:00;14.53;;;9.17;;
20383;SDS011;46458;50.966;7.002;2023-04-06T10:17:30;14.63;;;9.57;;
20383;SDS011;46458;50.966;7.002;2023-04-06T10:20:02;14.37;;;9.73;;
20383;SDS011;46458;50.966;7.002;2023-04-06T10:22:36;13.97;;;9.23;;
20383;SDS011;46458;50.966;7.002;2023-04-06T10:25:16;13.53;;;8.90;;
20383;SDS011;46458;50.966;7.002;2023-04-06T10:27:45;16.23;;;9.50;;
20383;SDS011;46458;50.966;7.002;2023-04-06T10:30:16;15.60;;;10.10;;
20383;SDS011;46458;50.966;7.002;2023-04-06T10:32:48;14.23;;;9.07;;
20383;SDS011;46458;50.966;7.002;2023-04-06T10:35:19;15.07;;;9.80;;
20383;SDS011;46458;50.966;7.002;2023-04-06T10:38:00;15.87;;;9.63;;
20383;SDS011;46458;50.966;7.002;2023-04-06T10:40:30;13.10;;;8.53;;
20383;SDS011;46458;50.966;7.002;2023-04-06T10:43:06;16.37;;;9.57;;
20383;SDS011;46458;50.966;7.002;2023-04-06T10:45:39;12.63;;;9.00;;
20383;SDS011;46458;50.966;7.002;2023-04-06T10:48:17;16.40;;;9.77;;
20383;SDS011;46458;50.966;7.002;2023-04-06T10:50:58;13.00;;;8.73;;
20383;SDS011;46458;50.966;7.002;2023-04-06T10:53:27;16.13;;;9.33;;
20383;SDS011;46458;50.966;7.002;2023-04-06T10:55:56;13.20;;;8.70;;
20383;SDS011;46458;50.966;7.002;2023-04-06T10:58:26;15.23;;;9.77;;
20383;SDS011;46458;50.966;7.002;2023-04-06T11:00:58;14.33;;;9.27;;
20383;SDS011;46458;50.966;7.002;2023-04-06T11:03:27;16.43;;;9.57;;
20383;SDS011;46458;50.966;7.002;2023-04-06T11:05:57;13.77;;;9.30;;
20383;SDS011;46458;50.966;7.002;2023-04-06T11:08:33;15.00;;;9.30;;
20383;SDS011;46458;50.966;7.002;2023-04-06T11:11:06;15.67;;;9.80;;
20383;SDS011;46458;50.966;7.002;2023-04-06T11:13:41;17.40;;;9.43;;
20383;SDS011;46458;50.966;7.002;2023-04-06T11:16:17;14.10;;;9.33;;
20383;SDS011;46458;50.966;7.002;2023-04-06T11:18:51;14.33;;;9.77;;
20383;SDS011;46458;50.966;7.002;2023-04-06T11:21:31;13.20;;;9.00;;
20383;SDS011;46458;50.966;7.002;2023-04-06T11:24:06;15.07;;;9.37;;
20383;SDS011;46458;50.966;7.002;2023-04-06T11:26:38;15.80;;;10.10;;
20383;SDS011;46458;50.966;7.002;2023-04-06T11:29:09;17.13;;;10.03;;
20383;SDS011;46458;50.966;7.002;2023-04-06T11:31:44;15.17;;;9.20;;
20383;SDS011;46458;50.966;7.002;2023-04-06T11:34:16;16.00;;;9.13;;
20383;SDS011;46458;50.966;7.002;2023-04-06T11:36:46;16.13;;;9.40;;
20383;SDS011;46458;50.966;7.002;2023-04-06T11:39:18;14.10;;;8.77;;
20383;SDS011;46458;50.966;7.002;2023-04-06T11:41:48;16.43;;;9.63;;
20383;SDS011;46458;50.966;7.002;2023-04-06T11:44:28;14.63;;;9.00;;
20383;SDS011;46458;50.966;7.002;2023-04-06T11:47:01;17.97;;;9.17;;
20383;SDS011;46458;50.966;7.002;2023-04-06T11:49:30;14.90;;;9.27;;
20383;SDS011;46458;50.966;7.002;2023-04-06T11:52:14;14.60;;;9.50;;
20383;SDS011;46458;50.966;7.002;2023-04-06T11:54:48;15.50;;;9.90;;
20383;SDS011;46458;50.966;7.002;2023-04-06T11:57:20;15.37;;;9.23;;
20383;SDS011;46458;50.966;7.002;2023-04-06T11:59:50;14.30;;;9.20;;
20383;SDS011;46458;50.966;7.002;2023-04-06T12:02:22;13.23;;;8.43;;
20383;SDS011;46458;50.966;7.002;2023-04-06T12:04:55;14.93;;;8.80;;
20383;SDS011;46458;50.966;7.002;2023-04-06T12:07:24;13.63;;;8.40;;
20383;SDS011;46458;50.966;7.002;2023-04-06T12:09:52;14.57;;;9.23;;
20383;SDS011;46458;50.966;7.002;2023-04-06T12:12:24;14.80;;;8.90;;
20383;SDS011;46458;50.966;7.002;2023-04-06T12:14:54;15.03;;;8.90;;
20383;SDS011;46458;50.966;7.002;2023-04-06T12:17:26;17.63;;;9.03;;
20383;SDS011;46458;50.966;7.002;2023-04-06T12:19:55;13.80;;;9.43;;
20383;SDS011;46458;50.966;7.002;2023-04-06T12:22:24;14.07;;;9.30;;
20383;SDS011;46458;50.966;7.002;2023-04-06T12:24:53;12.00;;;8.30;;
20383;SDS011;46458;50.966;7.002;2023-04-06T12:27:25;13.83;;;9.00;;
20383;SDS011;46458;50.966;7.002;2023-04-06T12:29:55;12.70;;;8.67;;
20383;SDS011;46458;50.966;7.002;2023-04-06T12:32:27;12.47;;;8.33;;
20383;SDS011;46458;50.966;7.002;2023-04-06T12:34:56;13.83;;;8.33;;
20383;SDS011;46458;50.966;7.002;2023-04-06T12:37:26;12.13;;;7.97;;
20383;SDS011;46458;50.966;7.002;2023-04-06T12:39:55;10.20;;;6.90;;
20383;SDS011;46458;50.966;7.002;2023-04-06T12:42:25;11.70;;;7.00;;
20383;SDS011;46458;50.966;7.002;2023-04-06T12:44:54;11.13;;;7.57;;
20383;SDS011;46458;50.966;7.002;2023-04-06T12:47:24;12.13;;;7.73;;
20383;SDS011;46458;50.966;7.002;2023-04-06T12:49:56;12.00;;;6.93;;
20383;SDS011;46458;50.966;7.002;2023-04-06T12:52:26;11.13;;;7.37;;
20383;SDS011;46458;50.966;7.002;2023-04-06T12:54:57;10.17;;;7.43;;
20383;SDS011;46458;50.966;7.002;2023-04-06T12:57:30;11.70;;;7.00;;
20383;SDS011;46458;50.966;7.002;2023-04-06T12:59:59;12.43;;;7.63;;
20383;SDS011;46458;50.966;7.002;2023-04-06T13:02:32;10.47;;;7.37;;
20383;SDS011;46458;50.966;7.002;2023-04-06T13:05:02;10.93;;;6.90;;
20383;SDS011;46458;50.966;7.002;2023-04-06T13:07:31;10.60;;;6.87;;
20383;SDS011;46458;50.966;7.002;2023-04-06T13:10:00;7.80;;;6.27;;
20383;SDS011;46458;50.966;7.002;2023-04-06T13:12:31;9.40;;;6.23;;
20383;SDS011;46458;50.966;7.002;2023-04-06T13:15:00;9.60;;;6.60;;
20383;SDS011;46458;50.966;7.002;2023-04-06T13:17:32;8.63;;;6.50;;
20383;SDS011;46458;50.966;7.002;2023-04-06T13:20:01;9.27;;;6.17;;
20383;SDS011;46458;50.966;7.002;2023-04-06T13:22:31;7.93;;;6.57;;
20383;SDS011;46458;50.966;7.002;2023-04-06T13:25:00;11.43;;;6.53;;
20383;SDS011;46458;50.966;7.002;2023-04-06T13:27:29;9.33;;;6.87;;
20383;SDS011;46458;50.966;7.002;2023-04-06T13:30:00;10.63;;;6.63;;
20383;SDS011;46458;50.966;7.002;2023-04-06T13:32:33;10.53;;;6.50;;
20383;SDS011;46458;50.966;7.002;2023-04-06T13:35:02;11.53;;;7.50;;
20383;SDS011;46458;50.966;7.002;2023-04-06T13:37:31;14.43;;;8.83;;
20383;SDS011;46458;50.966;7.002;2023-04-06T13:40:01;18.87;;;9.90;;
20383;SDS011;46458;50.966;7.002;2023-04-06T13:42:33;11.47;;;6.67;;
20383;SDS011;46458;50.966;7.002;2023-04-06T13:45:05;7.43;;;6.03;;
20383;SDS011;46458;50.966;7.002;2023-04-06T13:47:38;10.20;;;7.03;;
20383;SDS011;46458;50.966;7.002;2023-04-06T13:50:07;9.83;;;7.17;;
20383;SDS011;46458;50.966;7.002;2023-04-06T13:52:37;9.53;;;6.33;;
20383;SDS011;46458;50.966;7.002;2023-04-06T13:55:07;11.37;;;6.37;;
20383;SDS011;46458;50.966;7.002;2023-04-06T13:57:36;10.30;;;6.13;;
20383;SDS011;46458;50.966;7.002;2023-04-06T14:00:06;8.57;;;5.23;;
20383;SDS011;46458;50.966;7.002;2023-04-06T14:02:42;7.53;;;5.13;;
20383;SDS011;46458;50.966;7.002;2023-04-06T14:05:14;7.10;;;5.33;;
20383;SDS011;46458;50.966;7.002;2023-04-06T14:07:43;8.63;;;5.53;;
20383;SDS011;46458;50.966;7.002;2023-04-06T14:10:12;7.47;;;5.47;;
20383;SDS011;46458;50.966;7.002;2023-04-06T14:12:41;8.63;;;6.07;;
20383;SDS011;46458;50.966;7.002;2023-04-06T14:15:11;11.33;;;6.83;;
20383;SDS011;46458;50.966;7.002;2023-04-06T14:17:43;9.23;;;6.30;;
20383;SDS011;46458;50.966;7.002;2023-04-06T14:20:12;10.83;;;6.80;;
20383;SDS011;46458;50.966;7.002;2023-04-06T14:22:41;9.33;;;6.17;;
20383;SDS011;46458;50.966;7.002;2023-04-06T14:25:10;9.27;;;6.53;;
20383;SDS011;46458;50.966;7.002;2023-04-06T14:27:39;10.43;;;6.77;;
20383;SDS011;46458;50.966;7.002;2023-04-06T14:30:11;9.73;;;6.07;;
20383;SDS011;46458;50.966;7.002;2023-04-06T14:32:43;8.47;;;6.23;;
20383;SDS011;46458;50.966;7.002;2023-04-06T14:35:12;10.50;;;6.87;;
20383;SDS011;46458;50.966;7.002;2023-04-06T14:37:41;7.97;;;5.43;;
20383;SDS011;46458;50.966;7.002;2023-04-06T14:40:10;8.33;;;5.63;;
20383;SDS011;46458;50.966;7.002;2023-04-06T14:42:39;9.37;;;5.97;;
20383;SDS011;46458;50.966;7.002;2023-04-06T14:45:08;8.57;;;6.23;;
20383;SDS011;46458;50.966;7.002;2023-04-06T14:47:37;8.43;;;5.73;;
20383;SDS011;46458;50.966;7.002;2023-04-06T14:50:09;6.97;;;5.10;;
20383;SDS011;46458;50.966;7.002;2023-04-06T14:52:38;8.00;;;5.60;;
20383;SDS011;46458;50.966;7.002;2023-04-06T14:55:08;7.50;;;5.20;;
20383;SDS011;46458;50.966;7.002;2023-04-06T14:57:37;6.97;;;4.83;;
20383;SDS011;46458;50.966;7.002;2023-04-06T15:00:07;6.90;;;5.10;;
20383;SDS011;46458;50.966;7.002;2023-04-06T15:02:36;8.33;;;5.37;;
20383;SDS011;46458;50.966;7.002;2023-04-06T15:05:11;8.33;;;5.20;;